sensor_id;sensor_type;location;lat;lon;timestamp;P1;durP1;ratioP1;P2;durP2;ratioP2
15665;SDS011;20725;51.196;3.510;2023-08-06T00:01:12;31.33;;;11.63;;
15665;SDS011;20725;51.196;3.510;2023-08-06T00:03:40;28.53;;;10.97;;
15665;SDS011;20725;51.196;3.510;2023-08-06T00:06:07;25.67;;;11.63;;
15665;SDS011;20725;51.196;3.510;2023-08-06T00:08:34;28.63;;;12.27;;
15665;SDS011;20725;51.196;3.510;2023-08-06T00:11:02;30.00;;;12.70;;
15665;SDS011;20725;51.196;3.510;2023-08-06T00:13:32;27.13;;;12.27;;
15665;SDS011;20725;51.196;3.510;2023-08-06T00:16:07;34.03;;;12.23;;
15665;SDS011;20725;51.196;3.510;2023-08-06T00:18:37;26.43;;;12.00;;
15665;SDS011;20725;51.196;3.510;2023-08-06T00:21:04;32.50;;;13.07;;
15665;SDS011;20725;51.196;3.510;2023-08-06T00:23:31;34.37;;;13.10;;
15665;SDS011;20725;51.196;3.510;2023-08-06T00:25:59;34.20;;;12.93;;
15665;SDS011;20725;51.196;3.510;2023-08-06T00:28:27;32.80;;;12.60;;
15665;SDS011;20725;51.196;3.510;2023-08-06T00:30:54;25.10;;;12.67;;
15665;SDS011;20725;51.196;3.510;2023-08-06T00:33:22;28.03;;;12.63;;
15665;SDS011;20725;51.196;3.510;2023-08-06T00:35:51;34.37;;;12.40;;
15665;SDS011;20725;51.196;3.510;2023-08-06T00:38:18;42.67;;;12.77;;
15665;SDS011;20725;51.196;3.510;2023-08-06T00:40:46;26.07;;;12.10;;
15665;SDS011;20725;51.196;3.510;2023-08-06T00:43:16;29.20;;;12.10;;
15665;SDS011;20725;51.196;3.510;2023-08-06T00:45:44;25.97;;;11.83;;
15665;SDS011;20725;51.196;3.510;2023-08-06T00:48:14;26.93;;;11.70;;
15665;SDS011;20725;51.196;3.510;2023-08-06T00:50:41;18.30;;;11.30;;
15665;SDS011;20725;51.196;3.510;2023-08-06T00:53:11;25.63;;;11.93;;
15665;SDS011;20725;51.196;3.510;2023-08-06T00:55:38;22.83;;;11.57;;
15665;SDS011;20725;51.196;3.510;2023-08-06T00:58:06;20.90;;;10.57;;
15665;SDS011;20725;51.196;3.510;2023-08-06T01:00:34;21.10;;;11.20;;
15665;SDS011;20725;51.196;3.510;2023-08-06T01:03:03;22.33;;;11.43;;
15665;SDS011;20725;51.196;3.510;2023-08-06T01:05:30;22.33;;;11.33;;
15665;SDS011;20725;51.196;3.510;2023-08-06T01:08:05;23.90;;;10.77;;
15665;SDS011;20725;51.196;3.510;2023-08-06T01:10:38;27.67;;;11.57;;
15665;SDS011;20725;51.196;3.510;2023-08-06T01:13:08;22.30;;;9.90;;
15665;SDS011;20725;51.196;3.510;2023-08-06T01:15:40;11.10;;;6.10;;
15665;SDS011;20725;51.196;3.510;2023-08-06T01:18:11;7.67;;;4.20;;
15665;SDS011;20725;51.196;3.510;2023-08-06T01:20:40;9.13;;;3.23;;
15665;SDS011;20725;51.196;3.510;2023-08-06T01:23:07;13.30;;;3.30;;
15665;SDS011;20725;51.196;3.510;2023-08-06T01:25:36;9.07;;;3.73;;
15665;SDS011;20725;51.196;3.510;2023-08-06T01:28:09;11.00;;;4.20;;
15665;SDS011;20725;51.196;3.510;2023-08-06T01:30:39;12.67;;;3.50;;
15665;SDS011;20725;51.196;3.510;2023-08-06T01:33:09;10.13;;;3.90;;
15665;SDS011;20725;51.196;3.510;2023-08-06T01:35:37;12.00;;;3.93;;
15665;SDS011;20725;51.196;3.510;2023-08-06T01:38:06;7.13;;;3.87;;
15665;SDS011;20725;51.196;3.510;2023-08-06T01:40:33;9.73;;;3.27;;
15665;SDS011;20725;51.196;3.510;2023-08-06T01:43:01;8.87;;;3.47;;
15665;SDS011;20725;51.196;3.510;2023-08-06T01:45:28;7.67;;;3.03;;
15665;SDS011;20725;51.196;3.510;2023-08-06T01:47:55;10.23;;;3.47;;
15665;SDS011;20725;51.196;3.510;2023-08-06T01:50:23;5.57;;;2.47;;
15665;SDS011;20725;51.196;3.510;2023-08-06T01:52:50;6.73;;;2.50;;
15665;SDS011;20725;51.196;3.510;2023-08-06T01:55:19;8.10;;;3.73;;
15665;SDS011;20725;51.196;3.510;2023-08-06T01:57:46;13.23;;;5.07;;
15665;SDS011;20725;51.196;3.510;2023-08-06T02:00:14;15.00;;;5.40;;
15665;SDS011;20725;51.196;3.510;2023-08-06T02:02:41;12.80;;;4.23;;
15665;SDS011;20725;51.196;3.510;2023-08-06T02:05:08;13.93;;;4.87;;
15665;SDS011;20725;51.196;3.510;2023-08-06T02:07:36;13.10;;;5.10;;
15665;SDS011;20725;51.196;3.510;2023-08-06T02:10:03;14.47;;;5.13;;
15665;SDS011;20725;51.196;3.510;2023-08-06T02:12:32;19.83;;;6.23;;
15665;SDS011;20725;51.196;3.510;2023-08-06T02:14:59;12.17;;;4.80;;
15665;SDS011;20725;51.196;3.510;2023-08-06T02:17:26;13.33;;;5.43;;
15665;SDS011;20725;51.196;3.510;2023-08-06T02:19:54;15.57;;;6.23;;
15665;SDS011;20725;51.196;3.510;2023-08-06T02:22:21;15.93;;;6.30;;
15665;SDS011;20725;51.196;3.510;2023-08-06T02:24:49;17.80;;;6.77;;
15665;SDS011;20725;51.196;3.510;2023-08-06T02:27:16;23.97;;;7.93;;
15665;SDS011;20725;51.196;3.510;2023-08-06T02:29:45;24.47;;;8.20;;
15665;SDS011;20725;51.196;3.510;2023-08-06T02:32:12;20.07;;;9.90;;
15665;SDS011;20725;51.196;3.510;2023-08-06T02:34:39;26.37;;;9.93;;
15665;SDS011;20725;51.196;3.510;2023-08-06T02:37:06;27.70;;;9.40;;
15665;SDS011;20725;51.196;3.510;2023-08-06T02:39:34;30.87;;;10.23;;
15665;SDS011;20725;51.196;3.510;2023-08-06T02:42:04;21.70;;;11.13;;
15665;SDS011;20725;51.196;3.510;2023-08-06T02:44:32;20.77;;;10.47;;
15665;SDS011;20725;51.196;3.510;2023-08-06T02:47:01;25.93;;;11.23;;
15665;SDS011;20725;51.196;3.510;2023-08-06T02:49:28;20.93;;;10.20;;
15665;SDS011;20725;51.196;3.510;2023-08-06T02:51:56;36.47;;;10.53;;
15665;SDS011;20725;51.196;3.510;2023-08-06T02:54:23;19.30;;;9.33;;
15665;SDS011;20725;51.196;3.510;2023-08-06T02:56:50;24.67;;;9.20;;
15665;SDS011;20725;51.196;3.510;2023-08-06T02:59:18;20.07;;;8.37;;
15665;SDS011;20725;51.196;3.510;2023-08-06T03:01:45;19.27;;;8.23;;
15665;SDS011;20725;51.196;3.510;2023-08-06T03:04:14;19.97;;;7.30;;
15665;SDS011;20725;51.196;3.510;2023-08-06T03:06:43;18.20;;;7.13;;
15665;SDS011;20725;51.196;3.510;2023-08-06T03:09:10;19.40;;;7.07;;
15665;SDS011;20725;51.196;3.510;2023-08-06T03:11:40;23.77;;;7.30;;
15665;SDS011;20725;51.196;3.510;2023-08-06T03:14:08;20.27;;;7.23;;
15665;SDS011;20725;51.196;3.510;2023-08-06T03:16:35;18.37;;;6.93;;
15665;SDS011;20725;51.196;3.510;2023-08-06T03:19:02;19.63;;;6.70;;
15665;SDS011;20725;51.196;3.510;2023-08-06T03:21:31;16.83;;;5.87;;
15665;SDS011;20725;51.196;3.510;2023-08-06T03:23:58;10.93;;;6.07;;
15665;SDS011;20725;51.196;3.510;2023-08-06T03:26:26;18.03;;;5.53;;
15665;SDS011;20725;51.196;3.510;2023-08-06T03:28:53;13.03;;;4.70;;
15665;SDS011;20725;51.196;3.510;2023-08-06T03:31:21;11.20;;;4.53;;
15665;SDS011;20725;51.196;3.510;2023-08-06T03:33:48;16.73;;;5.00;;
15665;SDS011;20725;51.196;3.510;2023-08-06T03:36:15;12.37;;;4.60;;
15665;SDS011;20725;51.196;3.510;2023-08-06T03:38:44;11.90;;;4.63;;
15665;SDS011;20725;51.196;3.510;2023-08-06T03:41:11;13.83;;;4.67;;
15665;SDS011;20725;51.196;3.510;2023-08-06T03:43:39;13.77;;;4.70;;
15665;SDS011;20725;51.196;3.510;2023-08-06T03:46:08;10.07;;;4.50;;
15665;SDS011;20725;51.196;3.510;2023-08-06T03:48:37;14.40;;;4.67;;
15665;SDS011;20725;51.196;3.510;2023-08-06T03:51:04;14.30;;;4.50;;
15665;SDS011;20725;51.196;3.510;2023-08-06T03:53:31;13.67;;;4.37;;
15665;SDS011;20725;51.196;3.510;2023-08-06T03:56:00;15.77;;;4.93;;
15665;SDS011;20725;51.196;3.510;2023-08-06T03:58:27;12.93;;;4.60;;
15665;SDS011;20725;51.196;3.510;2023-08-06T04:00:58;11.53;;;4.67;;
15665;SDS011;20725;51.196;3.510;2023-08-06T04:03:26;9.67;;;4.00;;
15665;SDS011;20725;51.196;3.510;2023-08-06T04:05:53;10.07;;;3.70;;
15665;SDS011;20725;51.196;3.510;2023-08-06T04:08:21;7.00;;;3.70;;
15665;SDS011;20725;51.196;3.510;2023-08-06T04:10:49;12.90;;;4.07;;
15665;SDS011;20725;51.196;3.510;2023-08-06T04:13:18;14.90;;;4.87;;
15665;SDS011;20725;51.196;3.510;2023-08-06T04:15:45;9.57;;;4.13;;
15665;SDS011;20725;51.196;3.510;2023-08-06T04:18:13;7.03;;;3.60;;
15665;SDS011;20725;51.196;3.510;2023-08-06T04:20:43;10.43;;;3.73;;
15665;SDS011;20725;51.196;3.510;2023-08-06T04:23:10;8.60;;;4.03;;
15665;SDS011;20725;51.196;3.510;2023-08-06T04:25:38;23.20;;;4.23;;
15665;SDS011;20725;51.196;3.510;2023-08-06T04:28:05;9.93;;;4.20;;
15665;SDS011;20725;51.196;3.510;2023-08-06T04:30:34;9.83;;;4.50;;
15665;SDS011;20725;51.196;3.510;2023-08-06T04:33:02;8.43;;;4.50;;
15665;SDS011;20725;51.196;3.510;2023-08-06T04:35:29;7.10;;;4.70;;
15665;SDS011;20725;51.196;3.510;2023-08-06T04:37:56;11.57;;;4.60;;
15665;SDS011;20725;51.196;3.510;2023-08-06T04:40:24;8.03;;;4.40;;
15665;SDS011;20725;51.196;3.510;2023-08-06T04:42:52;14.03;;;4.63;;
15665;SDS011;20725;51.196;3.510;2023-08-06T04:45:19;9.70;;;4.30;;
15665;SDS011;20725;51.196;3.510;2023-08-06T04:47:48;7.77;;;4.20;;
15665;SDS011;20725;51.196;3.510;2023-08-06T04:50:15;11.43;;;4.00;;
15665;SDS011;20725;51.196;3.510;2023-08-06T04:52:42;9.33;;;4.97;;
15665;SDS011;20725;51.196;3.510;2023-08-06T04:55:10;10.93;;;5.30;;
15665;SDS011;20725;51.196;3.510;2023-08-06T04:57:37;11.63;;;4.73;;
15665;SDS011;20725;51.196;3.510;2023-08-06T05:00:05;6.70;;;4.30;;
15665;SDS011;20725;51.196;3.510;2023-08-06T05:02:33;10.00;;;5.17;;
15665;SDS011;20725;51.196;3.510;2023-08-06T05:05:04;9.10;;;4.90;;
15665;SDS011;20725;51.196;3.510;2023-08-06T05:07:32;11.67;;;5.10;;
15665;SDS011;20725;51.196;3.510;2023-08-06T05:09:59;10.83;;;4.50;;
15665;SDS011;20725;51.196;3.510;2023-08-06T05:12:28;7.13;;;4.17;;
15665;SDS011;20725;51.196;3.510;2023-08-06T05:14:55;12.63;;;4.17;;
15665;SDS011;20725;51.196;3.510;2023-08-06T05:17:23;7.53;;;3.50;;
15665;SDS011;20725;51.196;3.510;2023-08-06T05:19:50;7.17;;;2.90;;
15665;SDS011;20725;51.196;3.510;2023-08-06T05:22:19;8.53;;;2.80;;
15665;SDS011;20725;51.196;3.510;2023-08-06T05:24:47;9.60;;;2.50;;
15665;SDS011;20725;51.196;3.510;2023-08-06T05:27:14;5.63;;;2.23;;
15665;SDS011;20725;51.196;3.510;2023-08-06T05:29:44;8.70;;;2.00;;
15665;SDS011;20725;51.196;3.510;2023-08-06T05:32:11;9.13;;;2.20;;
15665;SDS011;20725;51.196;3.510;2023-08-06T05:34:39;8.27;;;2.10;;
15665;SDS011;20725;51.196;3.510;2023-08-06T05:37:07;11.23;;;2.70;;
15665;SDS011;20725;51.196;3.510;2023-08-06T05:39:38;7.23;;;2.37;;
15665;SDS011;20725;51.196;3.510;2023-08-06T05:42:06;16.07;;;2.40;;
15665;SDS011;20725;51.196;3.510;2023-08-06T05:44:33;8.33;;;2.40;;
15665;SDS011;20725;51.196;3.510;2023-08-06T05:47:01;12.13;;;2.57;;
15665;SDS011;20725;51.196;3.510;2023-08-06T05:49:28;6.83;;;2.30;;
15665;SDS011;20725;51.196;3.510;2023-08-06T05:51:56;9.37;;;2.43;;
15665;SDS011;20725;51.196;3.510;2023-08-06T05:54:23;8.97;;;2.50;;
15665;SDS011;20725;51.196;3.510;2023-08-06T05:56:52;11.27;;;2.20;;
15665;SDS011;20725;51.196;3.510;2023-08-06T05:59:20;7.60;;;2.03;;
15665;SDS011;20725;51.196;3.510;2023-08-06T06:01:47;7.50;;;2.60;;
15665;SDS011;20725;51.196;3.510;2023-08-06T06:04:14;8.70;;;2.43;;
15665;SDS011;20725;51.196;3.510;2023-08-06T06:06:42;3.70;;;2.17;;
15665;SDS011;20725;51.196;3.510;2023-08-06T06:09:10;8.23;;;2.17;;
15665;SDS011;20725;51.196;3.510;2023-08-06T06:11:37;11.53;;;2.50;;
15665;SDS011;20725;51.196;3.510;2023-08-06T06:14:06;9.13;;;2.63;;
15665;SDS011;20725;51.196;3.510;2023-08-06T06:16:33;12.77;;;2.93;;
15665;SDS011;20725;51.196;3.510;2023-08-06T06:19:01;14.83;;;3.73;;
15665;SDS011;20725;51.196;3.510;2023-08-06T06:21:28;14.20;;;3.27;;
15665;SDS011;20725;51.196;3.510;2023-08-06T06:23:56;12.67;;;2.63;;
15665;SDS011;20725;51.196;3.510;2023-08-06T06:26:23;8.27;;;2.60;;
15665;SDS011;20725;51.196;3.510;2023-08-06T06:28:50;8.77;;;2.97;;
15665;SDS011;20725;51.196;3.510;2023-08-06T06:31:19;9.27;;;3.27;;
15665;SDS011;20725;51.196;3.510;2023-08-06T06:33:47;9.57;;;2.33;;
15665;SDS011;20725;51.196;3.510;2023-08-06T06:36:14;9.23;;;2.43;;
15665;SDS011;20725;51.196;3.510;2023-08-06T06:38:42;7.57;;;2.17;;
15665;SDS011;20725;51.196;3.510;2023-08-06T06:41:09;7.57;;;2.40;;
15665;SDS011;20725;51.196;3.510;2023-08-06T06:43:36;14.67;;;2.80;;
15665;SDS011;20725;51.196;3.510;2023-08-06T06:46:05;9.60;;;2.37;;
15665;SDS011;20725;51.196;3.510;2023-08-06T06:48:34;8.33;;;2.43;;
15665;SDS011;20725;51.196;3.510;2023-08-06T06:51:01;7.80;;;2.20;;
15665;SDS011;20725;51.196;3.510;2023-08-06T06:53:29;10.13;;;2.23;;
15665;SDS011;20725;51.196;3.510;2023-08-06T06:56:00;9.20;;;2.20;;
15665;SDS011;20725;51.196;3.510;2023-08-06T06:58:28;4.10;;;2.03;;
15665;SDS011;20725;51.196;3.510;2023-08-06T07:00:55;6.57;;;2.13;;
15665;SDS011;20725;51.196;3.510;2023-08-06T07:03:23;8.50;;;2.77;;
15665;SDS011;20725;51.196;3.510;2023-08-06T07:05:56;7.07;;;2.30;;
15665;SDS011;20725;51.196;3.510;2023-08-06T07:08:24;6.33;;;2.43;;
15665;SDS011;20725;51.196;3.510;2023-08-06T07:10:58;11.53;;;3.30;;
15665;SDS011;20725;51.196;3.510;2023-08-06T07:13:26;9.80;;;2.57;;
15665;SDS011;20725;51.196;3.510;2023-08-06T07:15:53;8.37;;;2.60;;
15665;SDS011;20725;51.196;3.510;2023-08-06T07:18:21;7.53;;;2.60;;
15665;SDS011;20725;51.196;3.510;2023-08-06T07:20:48;9.50;;;2.17;;
15665;SDS011;20725;51.196;3.510;2023-08-06T07:23:17;7.37;;;2.20;;
15665;SDS011;20725;51.196;3.510;2023-08-06T07:25:45;10.73;;;2.50;;
15665;SDS011;20725;51.196;3.510;2023-08-06T07:28:13;7.53;;;2.40;;
15665;SDS011;20725;51.196;3.510;2023-08-06T07:30:40;6.03;;;2.10;;
15665;SDS011;20725;51.196;3.510;2023-08-06T07:33:08;12.97;;;2.37;;
15665;SDS011;20725;51.196;3.510;2023-08-06T07:35:36;10.87;;;2.70;;
15665;SDS011;20725;51.196;3.510;2023-08-06T07:38:03;9.47;;;2.77;;
15665;SDS011;20725;51.196;3.510;2023-08-06T07:40:32;8.33;;;2.37;;
15665;SDS011;20725;51.196;3.510;2023-08-06T07:42:59;8.80;;;2.67;;
15665;SDS011;20725;51.196;3.510;2023-08-06T07:45:27;9.43;;;2.60;;
15665;SDS011;20725;51.196;3.510;2023-08-06T07:47:54;9.07;;;2.67;;
15665;SDS011;20725;51.196;3.510;2023-08-06T07:50:22;10.43;;;2.87;;
15665;SDS011;20725;51.196;3.510;2023-08-06T07:52:49;12.43;;;3.30;;
15665;SDS011;20725;51.196;3.510;2023-08-06T07:55:16;11.70;;;2.87;;
15665;SDS011;20725;51.196;3.510;2023-08-06T07:57:49;12.10;;;2.87;;
15665;SDS011;20725;51.196;3.510;2023-08-06T08:00:16;8.67;;;3.20;;
15665;SDS011;20725;51.196;3.510;2023-08-06T08:02:52;10.70;;;3.23;;
15665;SDS011;20725;51.196;3.510;2023-08-06T08:05:20;10.20;;;3.40;;
15665;SDS011;20725;51.196;3.510;2023-08-06T08:07:48;9.87;;;2.67;;
15665;SDS011;20725;51.196;3.510;2023-08-06T08:10:15;9.03;;;2.87;;
15665;SDS011;20725;51.196;3.510;2023-08-06T08:12:42;11.40;;;3.27;;
15665;SDS011;20725;51.196;3.510;2023-08-06T08:15:14;13.77;;;3.23;;
15665;SDS011;20725;51.196;3.510;2023-08-06T08:17:41;8.97;;;2.80;;
15665;SDS011;20725;51.196;3.510;2023-08-06T08:20:09;14.43;;;3.27;;
15665;SDS011;20725;51.196;3.510;2023-08-06T08:22:36;13.70;;;2.97;;
15665;SDS011;20725;51.196;3.510;2023-08-06T08:25:04;9.50;;;3.17;;
15665;SDS011;20725;51.196;3.510;2023-08-06T08:27:32;13.37;;;2.47;;
15665;SDS011;20725;51.196;3.510;2023-08-06T08:30:00;13.47;;;2.77;;
15665;SDS011;20725;51.196;3.510;2023-08-06T08:32:29;9.63;;;2.63;;
15665;SDS011;20725;51.196;3.510;2023-08-06T08:34:57;13.17;;;3.10;;
15665;SDS011;20725;51.196;3.510;2023-08-06T08:37:24;7.00;;;2.80;;
15665;SDS011;20725;51.196;3.510;2023-08-06T08:39:52;14.90;;;3.47;;
15665;SDS011;20725;51.196;3.510;2023-08-06T08:42:19;11.30;;;2.97;;
15665;SDS011;20725;51.196;3.510;2023-08-06T08:44:47;7.93;;;2.50;;
15665;SDS011;20725;51.196;3.510;2023-08-06T08:47:16;9.00;;;2.47;;
15665;SDS011;20725;51.196;3.510;2023-08-06T08:49:45;7.20;;;2.00;;
15665;SDS011;20725;51.196;3.510;2023-08-06T08:52:13;9.07;;;2.47;;
15665;SDS011;20725;51.196;3.510;2023-08-06T08:54:42;10.67;;;2.40;;
15665;SDS011;20725;51.196;3.510;2023-08-06T08:57:10;10.77;;;2.50;;
15665;SDS011;20725;51.196;3.510;2023-08-06T08:59:37;7.50;;;2.17;;
15665;SDS011;20725;51.196;3.510;2023-08-06T09:02:05;11.07;;;2.30;;
15665;SDS011;20725;51.196;3.510;2023-08-06T09:04:33;9.27;;;2.10;;
15665;SDS011;20725;51.196;3.510;2023-08-06T09:07:03;9.30;;;2.23;;
15665;SDS011;20725;51.196;3.510;2023-08-06T09:09:31;7.27;;;2.57;;
15665;SDS011;20725;51.196;3.510;2023-08-06T09:12:02;11.90;;;2.70;;
15665;SDS011;20725;51.196;3.510;2023-08-06T09:14:33;7.43;;;2.13;;
15665;SDS011;20725;51.196;3.510;2023-08-06T09:17:00;9.13;;;2.77;;
15665;SDS011;20725;51.196;3.510;2023-08-06T09:19:29;12.33;;;3.00;;
15665;SDS011;20725;51.196;3.510;2023-08-06T09:21:57;12.00;;;3.07;;
15665;SDS011;20725;51.196;3.510;2023-08-06T09:24:26;10.57;;;2.60;;
15665;SDS011;20725;51.196;3.510;2023-08-06T09:26:53;6.43;;;2.40;;
15665;SDS011;20725;51.196;3.510;2023-08-06T09:29:21;12.27;;;3.27;;
15665;SDS011;20725;51.196;3.510;2023-08-06T09:31:49;13.57;;;2.63;;
15665;SDS011;20725;51.196;3.510;2023-08-06T09:34:18;11.77;;;3.10;;
15665;SDS011;20725;51.196;3.510;2023-08-06T09:36:47;10.23;;;2.93;;
15665;SDS011;20725;51.196;3.510;2023-08-06T09:39:16;8.50;;;2.57;;
15665;SDS011;20725;51.196;3.510;2023-08-06T09:41:46;13.00;;;3.67;;
15665;SDS011;20725;51.196;3.510;2023-08-06T09:44:15;13.83;;;3.30;;
15665;SDS011;20725;51.196;3.510;2023-08-06T09:46:46;9.63;;;3.10;;
15665;SDS011;20725;51.196;3.510;2023-08-06T09:49:14;9.47;;;2.37;;
15665;SDS011;20725;51.196;3.510;2023-08-06T09:51:42;7.53;;;3.00;;
15665;SDS011;20725;51.196;3.510;2023-08-06T09:54:10;5.13;;;2.17;;
15665;SDS011;20725;51.196;3.510;2023-08-06T09:56:39;6.27;;;2.23;;
15665;SDS011;20725;51.196;3.510;2023-08-06T09:59:08;10.17;;;3.03;;
15665;SDS011;20725;51.196;3.510;2023-08-06T10:01:36;5.80;;;1.87;;
15665;SDS011;20725;51.196;3.510;2023-08-06T10:04:04;8.43;;;2.20;;
15665;SDS011;20725;51.196;3.510;2023-08-06T10:06:33;7.07;;;2.73;;
15665;SDS011;20725;51.196;3.510;2023-08-06T10:09:15;8.23;;;3.00;;
15665;SDS011;20725;51.196;3.510;2023-08-06T10:12:06;7.17;;;2.30;;
15665;SDS011;20725;51.196;3.510;2023-08-06T10:14:35;11.17;;;2.50;;
15665;SDS011;20725;51.196;3.510;2023-08-06T10:17:04;5.80;;;2.50;;
15665;SDS011;20725;51.196;3.510;2023-08-06T10:19:32;6.97;;;2.43;;
15665;SDS011;20725;51.196;3.510;2023-08-06T10:22:09;5.57;;;2.07;;
15665;SDS011;20725;51.196;3.510;2023-08-06T10:24:47;6.90;;;2.60;;
15665;SDS011;20725;51.196;3.510;2023-08-06T10:27:17;10.27;;;2.70;;
15665;SDS011;20725;51.196;3.510;2023-08-06T10:29:49;8.13;;;2.53;;
15665;SDS011;20725;51.196;3.510;2023-08-06T10:32:16;9.93;;;2.47;;
15665;SDS011;20725;51.196;3.510;2023-08-06T10:34:54;14.80;;;2.90;;
15665;SDS011;20725;51.196;3.510;2023-08-06T10:37:22;9.93;;;3.07;;
15665;SDS011;20725;51.196;3.510;2023-08-06T10:39:50;8.30;;;2.60;;
15665;SDS011;20725;51.196;3.510;2023-08-06T10:42:21;9.57;;;3.00;;
15665;SDS011;20725;51.196;3.510;2023-08-06T10:47:32;8.33;;;3.07;;
15665;SDS011;20725;51.196;3.510;2023-08-06T10:50:06;10.87;;;2.90;;
15665;SDS011;20725;51.196;3.510;2023-08-06T10:52:33;10.93;;;3.53;;
15665;SDS011;20725;51.196;3.510;2023-08-06T10:55:01;11.13;;;3.10;;
15665;SDS011;20725;51.196;3.510;2023-08-06T10:57:28;10.17;;;2.90;;
15665;SDS011;20725;51.196;3.510;2023-08-06T10:59:55;10.47;;;3.03;;
15665;SDS011;20725;51.196;3.510;2023-08-06T11:02:23;10.23;;;2.80;;
15665;SDS011;20725;51.196;3.510;2023-08-06T11:04:52;11.20;;;3.17;;
15665;SDS011;20725;51.196;3.510;2023-08-06T11:07:19;14.83;;;3.50;;
15665;SDS011;20725;51.196;3.510;2023-08-06T11:09:50;10.43;;;2.87;;
15665;SDS011;20725;51.196;3.510;2023-08-06T11:12:20;12.57;;;3.13;;
15665;SDS011;20725;51.196;3.510;2023-08-06T11:14:52;10.57;;;3.23;;
15665;SDS011;20725;51.196;3.510;2023-08-06T11:17:21;10.30;;;3.27;;
15665;SDS011;20725;51.196;3.510;2023-08-06T11:19:48;9.70;;;2.77;;
15665;SDS011;20725;51.196;3.510;2023-08-06T11:22:18;9.20;;;2.60;;
15665;SDS011;20725;51.196;3.510;2023-08-06T11:24:46;7.80;;;2.50;;
15665;SDS011;20725;51.196;3.510;2023-08-06T11:27:13;10.63;;;2.93;;
15665;SDS011;20725;51.196;3.510;2023-08-06T11:29:41;6.53;;;2.70;;
15665;SDS011;20725;51.196;3.510;2023-08-06T11:32:08;11.17;;;2.67;;
15665;SDS011;20725;51.196;3.510;2023-08-06T11:34:36;7.63;;;2.73;;
15665;SDS011;20725;51.196;3.510;2023-08-06T11:37:04;7.50;;;2.80;;
15665;SDS011;20725;51.196;3.510;2023-08-06T11:39:33;9.93;;;2.60;;
15665;SDS011;20725;51.196;3.510;2023-08-06T11:42:02;5.00;;;2.20;;
15665;SDS011;20725;51.196;3.510;2023-08-06T11:44:40;8.13;;;2.73;;
15665;SDS011;20725;51.196;3.510;2023-08-06T11:47:11;16.90;;;2.57;;
15665;SDS011;20725;51.196;3.510;2023-08-06T11:49:41;5.00;;;2.13;;
15665;SDS011;20725;51.196;3.510;2023-08-06T11:52:12;12.53;;;2.97;;
15665;SDS011;20725;51.196;3.510;2023-08-06T11:54:41;9.03;;;1.93;;
15665;SDS011;20725;51.196;3.510;2023-08-06T11:57:09;9.40;;;2.37;;
15665;SDS011;20725;51.196;3.510;2023-08-06T11:59:38;5.90;;;2.13;;
15665;SDS011;20725;51.196;3.510;2023-08-06T12:02:09;6.37;;;2.37;;
15665;SDS011;20725;51.196;3.510;2023-08-06T12:07:25;8.53;;;2.20;;
15665;SDS011;20725;51.196;3.510;2023-08-06T12:10:00;12.80;;;2.70;;
15665;SDS011;20725;51.196;3.510;2023-08-06T12:12:28;6.70;;;2.10;;
15665;SDS011;20725;51.196;3.510;2023-08-06T12:14:58;8.67;;;2.33;;
15665;SDS011;20725;51.196;3.510;2023-08-06T12:17:28;8.87;;;2.33;;
15665;SDS011;20725;51.196;3.510;2023-08-06T12:19:56;6.23;;;2.60;;
15665;SDS011;20725;51.196;3.510;2023-08-06T12:22:24;7.60;;;2.60;;
15665;SDS011;20725;51.196;3.510;2023-08-06T12:24:52;8.97;;;2.27;;
15665;SDS011;20725;51.196;3.510;2023-08-06T12:27:21;13.70;;;3.13;;
15665;SDS011;20725;51.196;3.510;2023-08-06T12:29:48;8.50;;;2.40;;
15665;SDS011;20725;51.196;3.510;2023-08-06T12:32:16;8.33;;;2.40;;
15665;SDS011;20725;51.196;3.510;2023-08-06T12:34:44;10.07;;;2.83;;
15665;SDS011;20725;51.196;3.510;2023-08-06T12:37:13;7.63;;;2.60;;
15665;SDS011;20725;51.196;3.510;2023-08-06T12:39:41;5.93;;;2.37;;
15665;SDS011;20725;51.196;3.510;2023-08-06T12:42:08;7.00;;;2.87;;
15665;SDS011;20725;51.196;3.510;2023-08-06T12:44:37;9.93;;;2.47;;
15665;SDS011;20725;51.196;3.510;2023-08-06T12:47:07;6.40;;;2.47;;
15665;SDS011;20725;51.196;3.510;2023-08-06T12:49:35;6.60;;;2.40;;
15665;SDS011;20725;51.196;3.510;2023-08-06T12:52:02;7.03;;;2.40;;
15665;SDS011;20725;51.196;3.510;2023-08-06T12:54:33;13.70;;;2.70;;
15665;SDS011;20725;51.196;3.510;2023-08-06T12:57:02;4.67;;;2.30;;
15665;SDS011;20725;51.196;3.510;2023-08-06T12:59:29;7.10;;;2.37;;
15665;SDS011;20725;51.196;3.510;2023-08-06T13:01:59;4.17;;;2.20;;
15665;SDS011;20725;51.196;3.510;2023-08-06T13:04:27;5.50;;;2.10;;
15665;SDS011;20725;51.196;3.510;2023-08-06T13:06:55;9.67;;;2.53;;
15665;SDS011;20725;51.196;3.510;2023-08-06T13:09:23;8.37;;;2.20;;
15665;SDS011;20725;51.196;3.510;2023-08-06T13:11:51;7.77;;;2.27;;
15665;SDS011;20725;51.196;3.510;2023-08-06T13:14:18;7.13;;;1.90;;
15665;SDS011;20725;51.196;3.510;2023-08-06T13:16:48;5.93;;;2.20;;
15665;SDS011;20725;51.196;3.510;2023-08-06T13:19:17;10.90;;;2.97;;
15665;SDS011;20725;51.196;3.510;2023-08-06T13:22:01;9.30;;;2.03;;
15665;SDS011;20725;51.196;3.510;2023-08-06T13:24:29;8.07;;;2.30;;
15665;SDS011;20725;51.196;3.510;2023-08-06T13:26:56;9.30;;;2.37;;
15665;SDS011;20725;51.196;3.510;2023-08-06T13:29:24;6.90;;;2.13;;
15665;SDS011;20725;51.196;3.510;2023-08-06T13:31:52;8.10;;;2.43;;
15665;SDS011;20725;51.196;3.510;2023-08-06T13:34:21;8.27;;;2.47;;
15665;SDS011;20725;51.196;3.510;2023-08-06T13:36:48;6.23;;;2.20;;
15665;SDS011;20725;51.196;3.510;2023-08-06T13:39:16;5.73;;;2.17;;
15665;SDS011;20725;51.196;3.510;2023-08-06T13:41:44;8.10;;;2.80;;
15665;SDS011;20725;51.196;3.510;2023-08-06T13:44:12;6.10;;;2.40;;
15665;SDS011;20725;51.196;3.510;2023-08-06T13:46:40;9.37;;;2.50;;
15665;SDS011;20725;51.196;3.510;2023-08-06T13:49:08;9.33;;;2.67;;
15665;SDS011;20725;51.196;3.510;2023-08-06T13:51:37;5.73;;;2.10;;
15665;SDS011;20725;51.196;3.510;2023-08-06T13:54:04;8.57;;;2.47;;
15665;SDS011;20725;51.196;3.510;2023-08-06T13:56:32;6.63;;;2.07;;
15665;SDS011;20725;51.196;3.510;2023-08-06T13:59:00;5.47;;;2.43;;
15665;SDS011;20725;51.196;3.510;2023-08-06T14:01:30;5.97;;;2.60;;
15665;SDS011;20725;51.196;3.510;2023-08-06T14:03:57;5.57;;;2.13;;
15665;SDS011;20725;51.196;3.510;2023-08-06T14:06:25;6.20;;;2.40;;
15665;SDS011;20725;51.196;3.510;2023-08-06T14:08:54;7.57;;;2.10;;
15665;SDS011;20725;51.196;3.510;2023-08-06T14:11:21;4.87;;;2.10;;
15665;SDS011;20725;51.196;3.510;2023-08-06T14:13:48;5.27;;;1.97;;
15665;SDS011;20725;51.196;3.510;2023-08-06T14:16:16;8.13;;;2.23;;
15665;SDS011;20725;51.196;3.510;2023-08-06T14:18:44;8.50;;;2.27;;
15665;SDS011;20725;51.196;3.510;2023-08-06T14:21:11;5.27;;;2.23;;
15665;SDS011;20725;51.196;3.510;2023-08-06T14:23:39;6.23;;;1.93;;
15665;SDS011;20725;51.196;3.510;2023-08-06T14:26:09;8.87;;;2.60;;
15665;SDS011;20725;51.196;3.510;2023-08-06T14:28:40;9.67;;;2.50;;
15665;SDS011;20725;51.196;3.510;2023-08-06T14:31:08;7.90;;;2.30;;
15665;SDS011;20725;51.196;3.510;2023-08-06T14:33:36;7.47;;;2.30;;
15665;SDS011;20725;51.196;3.510;2023-08-06T14:36:03;7.47;;;2.37;;
15665;SDS011;20725;51.196;3.510;2023-08-06T14:38:31;7.07;;;2.30;;
15665;SDS011;20725;51.196;3.510;2023-08-06T14:40:58;9.53;;;2.70;;
15665;SDS011;20725;51.196;3.510;2023-08-06T14:43:27;8.67;;;2.23;;
15665;SDS011;20725;51.196;3.510;2023-08-06T14:45:55;8.23;;;2.43;;
15665;SDS011;20725;51.196;3.510;2023-08-06T14:48:22;14.40;;;2.60;;
15665;SDS011;20725;51.196;3.510;2023-08-06T14:50:50;8.33;;;2.27;;
15665;SDS011;20725;51.196;3.510;2023-08-06T14:53:17;8.60;;;2.03;;